Time;durP1;ratioP1;P1;durP2;ratioP2;P2;SDS_P1;SDS_P2;PMS_P1;PMS_P2;Temp;Humidity;BMP_temperature;BMP_pressure;BME280_temperature;BME280_humidity;BME280_pressure;Samples;Min_cycle;Max_cycle;Signal;HPM_P1;HPM_P2
2022/09/02 00:02:07;;;;;;;1.50;0.70;;;15.40;99.90;;;;;;5096106;28;20467;-76
2022/09/02 00:04:34;;;;;;;1.50;1.10;;;15.40;99.90;;;;;;5095774;28;21007;-76
2022/09/02 00:07:00;;;;;;;1.53;0.77;;;15.40;99.90;;;;;;5096095;28;20448;-76
2022/09/02 00:09:27;;;;;;;1.87;0.90;;;15.30;99.90;;;;;;5096058;28;20448;-76
2022/09/02 00:11:55;;;;;;;0.43;0.43;;;15.40;99.90;;;;;;5095910;28;20472;-76
2022/09/02 00:14:26;;;;;;;0.80;0.80;;;15.30;99.90;;;;;;5095959;28;20788;-76
2022/09/02 00:16:54;;;;;;;0.93;0.93;;;15.30;99.90;;;;;;5095621;28;20927;-76
2022/09/02 00:19:24;;;;;;;1.10;0.73;;;15.30;99.90;;;;;;5095906;28;20448;-76
2022/09/02 00:21:52;;;;;;;0.70;0.60;;;15.20;99.90;;;;;;5095713;28;20468;-76
2022/09/02 00:24:19;;;;;;;0.60;0.60;;;15.20;99.90;;;;;;5095762;28;20451;-76
2022/09/02 00:26:46;;;;;;;3.00;0.70;;;15.20;99.90;;;;;;5095218;28;20491;-76
2022/09/02 00:29:14;;;;;;;1.00;0.90;;;15.20;99.90;;;;;;5095343;28;20444;-76
2022/09/02 00:31:41;;;;;;;1.00;0.80;;;15.10;99.90;;;;;;5095509;28;20463;-76
2022/09/02 00:34:10;;;;;;;0.80;0.80;;;15.10;99.90;;;;;;5095252;28;20943;-76
2022/09/02 00:36:37;;;;;;;0.50;0.50;;;15.10;99.90;;;;;;5095217;28;20436;-76
2022/09/02 00:39:07;;;;;;;2.93;0.67;;;15.00;99.90;;;;;;5095451;28;20450;-76
2022/09/02 00:41:35;;;;;;;1.60;0.70;;;14.90;99.90;;;;;;5095193;28;20482;-76
2022/09/02 00:44:04;;;;;;;0.73;0.70;;;14.90;99.90;;;;;;5094974;28;20955;-76
2022/09/02 00:46:33;;;;;;;1.90;0.60;;;14.90;99.90;;;;;;5095237;28;20476;-76
2022/09/02 00:49:05;;;;;;;0.50;0.50;;;14.80;99.90;;;;;;5095288;28;20496;-76
2022/09/02 00:51:39;;;;;;;0.70;0.60;;;14.80;99.90;;;;;;5095203;28;20428;-76
2022/09/02 00:54:06;;;;;;;0.57;0.57;;;14.80;99.90;;;;;;5095184;28;20439;-76
2022/09/02 00:56:36;;;;;;;2.20;0.80;;;14.70;99.90;;;;;;5094801;28;20953;-76
2022/09/02 00:59:04;;;;;;;0.60;0.60;;;14.70;99.90;;;;;;5095093;28;20444;-76
2022/09/02 01:01:30;;;;;;;0.60;0.53;;;14.70;99.90;;;;;;5095261;28;20452;-76
2022/09/02 01:03:57;;;;;;;0.90;0.70;;;14.70;99.90;;;;;;5094974;28;20455;-76
2022/09/02 01:06:27;;;;;;;1.90;0.83;;;14.70;99.90;;;;;;5094863;28;20479;-76
2022/09/02 01:09:00;;;;;;;0.90;0.87;;;14.70;99.90;;;;;;5094538;28;20961;-76
2022/09/02 01:11:31;;;;;;;0.50;0.50;;;14.70;99.90;;;;;;5094815;28;20436;-76
2022/09/02 01:14:00;;;;;;;0.90;0.80;;;14.60;99.90;;;;;;5094783;28;20454;-76
2022/09/02 01:16:31;;;;;;;3.20;1.20;;;14.60;99.90;;;;;;5094713;28;20439;-76
2022/09/02 01:19:01;;;;;;;0.60;0.60;;;14.60;99.90;;;;;;5094606;28;20440;-76
2022/09/02 01:21:28;;;;;;;1.43;1.33;;;14.60;99.90;;;;;;5094641;28;20428;-76
2022/09/02 01:23:56;;;;;;;1.40;0.67;;;14.60;99.90;;;;;;5094568;28;20440;-76
2022/09/02 01:26:23;;;;;;;0.83;0.73;;;14.70;99.90;;;;;;5094108;28;20492;-76
2022/09/02 01:28:49;;;;;;;2.53;1.13;;;14.60;99.90;;;;;;5094450;28;20448;-76
2022/09/02 01:31:16;;;;;;;1.07;0.60;;;14.60;99.90;;;;;;5094433;28;20455;-76
2022/09/02 01:33:43;;;;;;;0.73;0.70;;;14.60;99.90;;;;;;5094398;28;20444;-76
2022/09/02 01:36:10;;;;;;;1.23;0.50;;;14.70;99.90;;;;;;5094323;28;20444;-76
2022/09/02 01:38:37;;;;;;;1.60;1.00;;;14.70;99.90;;;;;;5094296;28;20455;-76
2022/09/02 01:41:06;;;;;;;0.73;0.73;;;14.60;99.90;;;;;;5093960;28;21042;-76
2022/09/02 01:43:32;;;;;;;0.60;0.60;;;14.60;99.90;;;;;;5094212;28;20468;-76
2022/09/02 01:46:00;;;;;;;0.80;0.70;;;14.60;99.90;;;;;;5094076;28;20476;-76
2022/09/02 01:48:27;;;;;;;2.60;0.80;;;14.60;99.90;;;;;;5094142;28;20447;-76
2022/09/02 01:50:56;;;;;;;1.03;0.70;;;14.60;99.90;;;;;;5094104;28;20451;-76
2022/09/02 01:53:23;;;;;;;0.70;0.70;;;14.70;99.90;;;;;;5093637;28;20476;-76
2022/09/02 01:55:50;;;;;;;0.47;0.43;;;14.60;99.90;;;;;;5093457;28;20447;-76
2022/09/02 01:58:19;;;;;;;1.27;0.70;;;14.60;99.90;;;;;;5093990;28;20448;-76
2022/09/02 02:00:46;;;;;;;0.60;0.60;;;14.60;99.90;;;;;;5093648;28;21023;-76
2022/09/02 02:03:13;;;;;;;1.30;0.60;;;14.60;99.90;;;;;;5093523;28;20989;-76
2022/09/02 02:05:40;;;;;;;1.37;0.97;;;14.50;99.90;;;;;;5093812;28;20471;-76
2022/09/02 02:08:07;;;;;;;0.63;0.63;;;14.50;99.90;;;;;;5093508;28;20436;-76
2022/09/02 02:10:34;;;;;;;0.50;0.50;;;14.50;99.90;;;;;;5093786;28;20446;-76
2022/09/02 02:13:01;;;;;;;0.63;0.60;;;14.50;99.90;;;;;;5093708;28;20503;-76
2022/09/02 02:15:29;;;;;;;0.53;0.53;;;14.50;99.90;;;;;;5093388;28;20931;-76
2022/09/02 02:17:56;;;;;;;0.87;0.60;;;14.50;99.90;;;;;;5093705;28;20443;-76
2022/09/02 02:20:23;;;;;;;1.33;0.70;;;14.40;99.90;;;;;;5093366;28;20805;-76
2022/09/02 02:22:50;;;;;;;0.67;0.67;;;14.40;99.90;;;;;;5093235;28;20851;-76
2022/09/02 02:25:17;;;;;;;1.27;0.80;;;14.30;99.90;;;;;;5093313;28;20459;-76
2022/09/02 02:27:44;;;;;;;1.87;0.90;;;14.30;99.90;;;;;;5093634;28;20519;-76
2022/09/02 02:30:13;;;;;;;0.70;0.70;;;14.30;99.90;;;;;;5093552;28;20476;-76
2022/09/02 02:32:42;;;;;;;0.60;0.60;;;14.30;99.90;;;;;;5093462;28;20467;-76
2022/09/02 02:35:10;;;;;;;0.80;0.50;;;14.30;99.90;;;;;;5093452;28;20480;-76
2022/09/02 02:37:37;;;;;;;1.70;0.60;;;14.20;99.90;;;;;;5093460;28;20436;-76
2022/09/02 02:40:06;;;;;;;0.90;0.90;;;14.20;99.90;;;;;;5093443;28;20474;-76
2022/09/02 02:42:33;;;;;;;0.53;0.53;;;14.10;99.90;;;;;;5093355;28;20919;-76
2022/09/02 02:45:00;;;;;;;0.40;0.40;;;14.10;99.90;;;;;;5093396;28;20451;-76
2022/09/02 02:47:26;;;;;;;0.87;0.73;;;14.10;99.90;;;;;;5093294;28;20480;-76
2022/09/02 02:49:54;;;;;;;1.03;0.60;;;14.10;99.90;;;;;;5093070;28;20447;-76
2022/09/02 02:52:21;;;;;;;0.97;0.60;;;14.10;99.90;;;;;;5093259;28;20468;-76
2022/09/02 02:54:48;;;;;;;0.60;0.60;;;14.10;99.90;;;;;;5093294;28;20447;-76
2022/09/02 02:57:15;;;;;;;1.03;0.60;;;14.10;99.90;;;;;;5093318;28;20447;-76
2022/09/02 02:59:41;;;;;;;0.60;0.50;;;14.00;99.90;;;;;;5092947;28;20450;-76
2022/09/02 03:02:08;;;;;;;0.77;0.77;;;14.00;99.90;;;;;;5093178;28;20477;-76
2022/09/02 03:04:35;;;;;;;1.43;0.90;;;13.90;99.90;;;;;;5093243;28;20920;-76
2022/09/02 03:07:06;;;;;;;1.00;0.70;;;13.90;99.90;;;;;;5096793;28;20847;-76
2022/09/02 03:09:33;;;;;;;2.97;1.10;;;13.90;99.90;;;;;;5097212;28;20439;-76
2022/09/02 03:12:00;;;;;;;0.70;0.50;;;13.90;99.90;;;;;;5097098;28;20467;-76
2022/09/02 03:14:26;;;;;;;1.17;1.07;;;13.90;99.90;;;;;;5097081;28;20443;-76
2022/09/02 03:16:53;;;;;;;0.40;0.40;;;13.90;99.90;;;;;;5097024;28;20446;-76
2022/09/02 03:19:20;;;;;;;0.90;0.70;;;13.90;99.90;;;;;;5096983;28;20444;-76
2022/09/02 03:21:47;;;;;;;3.77;0.60;;;13.90;99.90;;;;;;5096584;28;20998;-76
2022/09/02 03:24:15;;;;;;;0.80;0.40;;;13.90;99.90;;;;;;5096904;28;20456;-76
2022/09/02 03:26:42;;;;;;;0.50;0.50;;;13.90;99.90;;;;;;5096363;28;20862;-76
2022/09/02 03:29:09;;;;;;;0.50;0.50;;;13.80;99.90;;;;;;5096818;28;20447;-76
2022/09/02 03:31:36;;;;;;;1.53;0.83;;;13.80;99.90;;;;;;5096684;28;20447;-76
2022/09/02 03:34:04;;;;;;;0.77;0.77;;;13.80;99.90;;;;;;5096429;28;20517;-76
2022/09/02 03:36:32;;;;;;;0.70;0.50;;;13.80;99.90;;;;;;5096711;28;20480;-76
2022/09/02 03:39:00;;;;;;;0.50;0.40;;;13.80;99.90;;;;;;5096653;28;20443;-76
2022/09/02 03:41:28;;;;;;;1.40;0.60;;;13.80;99.90;;;;;;5096526;28;20448;-76
2022/09/02 03:43:56;;;;;;;0.93;0.80;;;13.80;99.90;;;;;;5096532;28;20522;-76
2022/09/02 03:46:23;;;;;;;0.77;0.77;;;13.80;99.90;;;;;;5096421;28;20854;-76
2022/09/02 03:48:51;;;;;;;0.70;0.47;;;13.80;99.90;;;;;;5096249;28;20431;-76
2022/09/02 03:51:18;;;;;;;0.70;0.70;;;13.70;99.90;;;;;;5096374;28;20443;-76
2022/09/02 03:53:45;;;;;;;1.17;0.70;;;13.70;99.90;;;;;;5096352;28;20451;-76
2022/09/02 03:56:14;;;;;;;0.50;0.47;;;13.70;99.90;;;;;;5096335;28;20451;-76
2022/09/02 03:58:42;;;;;;;1.03;1.03;;;13.70;99.90;;;;;;5096261;28;20455;-76
2022/09/02 04:01:14;;;;;;;1.77;0.70;;;13.70;99.90;;;;;;5096244;28;20432;-76
2022/09/02 04:03:41;;;;;;;0.40;0.40;;;13.70;99.90;;;;;;5095885;28;20466;-76
2022/09/02 04:06:11;;;;;;;0.57;0.57;;;13.70;99.90;;;;;;5096054;28;20475;-76
2022/09/02 04:08:38;;;;;;;0.60;0.60;;;13.70;99.90;;;;;;5096117;28;20432;-76
2022/09/02 04:11:07;;;;;;;1.67;1.63;;;13.70;99.90;;;;;;5096007;28;20448;-76
2022/09/02 04:13:34;;;;;;;1.17;0.93;;;13.70;99.90;;;;;;5095959;28;20467;-76
2022/09/02 04:16:06;;;;;;;1.07;0.93;;;13.70;99.90;;;;;;5095910;28;20459;-76
2022/09/02 04:18:33;;;;;;;0.83;0.70;;;13.70;99.90;;;;;;5095315;28;20424;-76
2022/09/02 04:21:00;;;;;;;0.60;0.60;;;13.70;99.90;;;;;;5095873;28;20444;-76
2022/09/02 04:23:27;;;;;;;0.60;0.50;;;13.70;99.90;;;;;;5095699;28;20468;-76
2022/09/02 04:25:54;;;;;;;4.57;1.13;;;13.70;99.90;;;;;;5095293;28;20531;-76
2022/09/02 04:28:21;;;;;;;2.40;1.10;;;13.70;99.90;;;;;;5095389;28;20447;-76
2022/09/02 04:30:48;;;;;;;2.73;0.60;;;13.70;99.90;;;;;;5096162;28;20440;-76
2022/09/02 04:33:16;;;;;;;0.87;0.57;;;13.70;99.90;;;;;;5095541;28;20459;-76
2022/09/02 04:35:45;;;;;;;0.83;0.80;;;13.60;99.90;;;;;;5095577;28;20457;-77
2022/09/02 04:38:12;;;;;;;1.17;0.77;;;13.60;99.90;;;;;;5096263;28;20435;-77
2022/09/02 04:40:40;;;;;;;0.50;0.50;;;13.50;99.90;;;;;;5095445;28;20440;-77
2022/09/02 04:43:07;;;;;;;0.60;0.50;;;13.50;99.90;;;;;;5095371;28;20464;-77
2022/09/02 04:45:35;;;;;;;0.80;0.80;;;13.40;99.90;;;;;;5095339;28;20448;-77
2022/09/02 04:48:02;;;;;;;0.50;0.50;;;13.40;99.90;;;;;;5094957;28;20478;-77
2022/09/02 04:50:30;;;;;;;0.40;0.40;;;13.40;99.90;;;;;;5094951;28;21026;-77
2022/09/02 04:52:57;;;;;;;0.70;0.70;;;13.40;99.90;;;;;;5095145;28;20467;-76
2022/09/02 04:55:24;;;;;;;0.60;0.60;;;13.30;99.90;;;;;;5095178;28;20453;-76
2022/09/02 04:57:50;;;;;;;0.50;0.50;;;13.30;99.90;;;;;;5094784;28;20441;-77
2022/09/02 05:00:18;;;;;;;0.70;0.50;;;13.30;99.90;;;;;;5095061;28;20448;-77
2022/09/02 05:02:45;;;;;;;0.50;0.50;;;13.30;99.90;;;;;;5094984;28;20470;-77
2022/09/02 05:05:11;;;;;;;0.80;0.80;;;13.20;99.90;;;;;;5094963;28;20444;-77
2022/09/02 05:07:40;;;;;;;1.23;0.70;;;13.30;99.90;;;;;;5094536;28;20998;-77
2022/09/02 05:10:08;;;;;;;1.10;0.93;;;13.30;99.90;;;;;;5094574;28;20953;-77
2022/09/02 05:12:36;;;;;;;0.63;0.50;;;13.30;99.90;;;;;;5094760;28;20472;-77
2022/09/02 05:15:04;;;;;;;1.77;0.57;;;13.20;99.90;;;;;;5094779;28;20497;-77
2022/09/02 05:17:31;;;;;;;1.47;0.53;;;13.30;99.90;;;;;;5094440;28;20535;-77
2022/09/02 05:19:59;;;;;;;0.40;0.40;;;13.20;99.90;;;;;;5094693;28;20444;-76
2022/09/02 05:22:28;;;;;;;0.40;0.40;;;13.20;99.90;;;;;;5094602;28;20460;-76
2022/09/02 05:24:56;;;;;;;0.70;0.70;;;13.20;99.90;;;;;;5094646;28;20871;-76
2022/09/02 05:27:24;;;;;;;0.77;0.57;;;13.20;99.90;;;;;;5094052;28;20491;-76
2022/09/02 05:29:54;;;;;;;0.77;0.70;;;13.30;99.90;;;;;;5093255;28;20443;-76
2022/09/02 05:32:21;;;;;;;1.33;0.73;;;13.30;99.90;;;;;;5094119;28;20987;-76
2022/09/02 05:34:48;;;;;;;0.40;0.30;;;13.30;99.90;;;;;;5094385;28;20448;-76
2022/09/02 05:37:15;;;;;;;1.53;1.13;;;13.30;99.90;;;;;;5094396;28;20436;-76
2022/09/02 05:39:42;;;;;;;0.80;0.60;;;13.30;99.90;;;;;;5094010;28;20787;-76
2022/09/02 05:42:10;;;;;;;1.03;0.67;;;13.40;99.90;;;;;;5093887;28;21005;-76
2022/09/02 05:44:37;;;;;;;0.50;0.50;;;13.40;99.90;;;;;;5094275;28;20445;-76
2022/09/02 05:47:05;;;;;;;1.27;0.50;;;13.40;99.90;;;;;;5094146;28;20510;-76
2022/09/02 05:49:32;;;;;;;0.50;0.50;;;13.50;99.90;;;;;;5094195;28;20444;-77
2022/09/02 05:52:00;;;;;;;0.60;0.40;;;13.50;99.90;;;;;;5094026;28;20464;-76
2022/09/02 05:54:30;;;;;;;0.60;0.60;;;13.60;99.90;;;;;;5094063;28;20444;-76
2022/09/02 05:56:58;;;;;;;0.80;0.80;;;13.70;99.90;;;;;;5094034;28;20439;-76
2022/09/02 05:59:28;;;;;;;0.40;0.40;;;13.80;99.90;;;;;;5094007;28;20444;-76
2022/09/02 06:01:56;;;;;;;1.57;0.57;;;13.80;99.90;;;;;;5093546;28;20503;-76
2022/09/02 06:04:22;;;;;;;0.60;0.60;;;13.90;99.90;;;;;;5093637;28;20785;-76
2022/09/02 06:06:50;;;;;;;0.50;0.50;;;14.00;99.90;;;;;;5093481;28;20994;-76
2022/09/02 06:09:21;;;;;;;0.93;0.60;;;14.00;99.90;;;;;;5093832;28;20448;-77
2022/09/02 06:11:49;;;;;;;0.70;0.70;;;14.10;99.90;;;;;;5093747;28;20467;-77
2022/09/02 06:14:17;;;;;;;0.50;0.50;;;14.20;99.90;;;;;;5093773;28;20448;-76
2022/09/02 06:16:46;;;;;;;1.33;0.80;;;14.20;99.90;;;;;;5093704;28;20444;-76
2022/09/02 06:19:13;;;;;;;0.60;0.60;;;14.40;99.90;;;;;;5093724;28;20443;-76
2022/09/02 06:21:41;;;;;;;0.80;0.80;;;14.50;99.90;;;;;;5093594;28;20463;-76
2022/09/02 06:24:10;;;;;;;0.90;0.90;;;14.60;99.90;;;;;;5094217;28;20424;-76
2022/09/02 06:26:38;;;;;;;0.80;0.80;;;14.80;99.90;;;;;;5093435;28;20482;-76
2022/09/02 06:29:05;;;;;;;0.70;0.70;;;15.10;99.90;;;;;;5093564;28;20452;-76
2022/09/02 06:31:33;;;;;;;0.93;0.70;;;15.40;99.90;;;;;;5093474;28;20448;-76
2022/09/02 06:34:01;;;;;;;1.00;0.77;;;15.60;99.90;;;;;;5093215;28;20443;-76
2022/09/02 06:36:29;;;;;;;1.00;0.57;;;15.90;99.90;;;;;;5093490;28;20542;-76
2022/09/02 06:38:58;;;;;;;0.67;0.67;;;16.10;99.90;;;;;;5093501;28;20459;-76
2022/09/02 06:41:27;;;;;;;0.70;0.50;;;16.20;99.90;;;;;;5098524;28;20939;-76
2022/09/02 06:43:56;;;;;;;0.70;0.70;;;16.40;99.90;;;;;;5100216;28;20428;-76
2022/09/02 06:46:25;;;;;;;0.73;0.50;;;16.60;99.90;;;;;;5100169;28;20512;-76
2022/09/02 06:48:52;;;;;;;2.50;0.70;;;16.70;99.90;;;;;;5100071;28;20478;-76
2022/09/02 06:51:22;;;;;;;0.83;0.70;;;16.80;99.90;;;;;;5100038;28;20469;-76
2022/09/02 06:53:49;;;;;;;1.33;0.70;;;16.80;99.90;;;;;;5100062;28;20440;-76
2022/09/02 06:56:15;;;;;;;0.70;0.70;;;16.80;99.90;;;;;;5099746;28;20935;-77
2022/09/02 06:58:42;;;;;;;0.70;0.50;;;17.00;99.90;;;;;;5099790;28;20432;-77
2022/09/02 07:01:10;;;;;;;0.70;0.70;;;17.00;99.90;;;;;;5099999;28;20446;-77
2022/09/02 07:06:21;;;;;;;0.60;0.60;;;17.10;99.90;;;;;;5099776;28;20407;-76
2022/09/02 07:08:48;;;;;;;0.60;0.50;;;17.30;99.90;;;;;;5099865;28;20490;-76
2022/09/02 07:11:18;;;;;;;0.70;0.67;;;17.40;99.90;;;;;;5099942;28;20868;-76
2022/09/02 07:13:45;;;;;;;1.67;0.73;;;17.40;99.90;;;;;;5099611;28;20450;-76
2022/09/02 07:16:12;;;;;;;1.17;0.60;;;17.40;99.90;;;;;;5099866;28;20806;-76
2022/09/02 07:18:38;;;;;;;2.30;0.70;;;17.60;99.90;;;;;;5099871;28;20444;-76
2022/09/02 07:21:08;;;;;;;1.20;0.90;;;17.60;99.90;;;;;;5099829;28;20454;-76
2022/09/02 07:23:36;;;;;;;0.67;0.67;;;17.80;99.90;;;;;;5099773;28;20473;-76
2022/09/02 07:26:03;;;;;;;0.70;0.70;;;18.00;99.90;;;;;;5099516;28;20502;-77
2022/09/02 07:28:30;;;;;;;0.60;0.60;;;18.10;99.90;;;;;;5099462;28;20845;-76
2022/09/02 07:30:57;;;;;;;1.70;0.90;;;18.10;99.90;;;;;;5099799;28;20447;-77
2022/09/02 07:33:23;;;;;;;0.70;0.70;;;18.20;99.90;;;;;;5099715;28;20467;-77
2022/09/02 07:35:51;;;;;;;1.20;0.90;;;18.30;99.90;;;;;;5099752;28;20459;-77
2022/09/02 07:38:19;;;;;;;1.07;0.80;;;18.40;99.90;;;;;;5099709;28;20444;-77
2022/09/02 07:40:47;;;;;;;0.67;0.67;;;18.40;99.90;;;;;;5099676;28;20467;-80
2022/09/02 07:43:14;;;;;;;0.70;0.70;;;18.50;99.90;;;;;;5099611;28;20464;-81
2022/09/02 07:45:42;;;;;;;0.60;0.60;;;18.60;99.90;;;;;;5099617;28;20442;-81
2022/09/02 07:48:09;;;;;;;0.70;0.70;;;18.70;99.90;;;;;;5099538;28;20483;-81
2022/09/02 07:50:37;;;;;;;0.40;0.40;;;18.80;99.90;;;;;;5100001;28;20809;-80
2022/09/02 07:53:05;;;;;;;0.70;0.70;;;18.90;99.90;;;;;;5095759;28;20468;-81
2022/09/02 07:55:34;;;;;;;1.03;0.50;;;19.00;99.90;;;;;;5096310;28;20458;-81
2022/09/02 07:58:04;;;;;;;0.70;0.70;;;19.00;99.90;;;;;;5096362;28;20923;-81
2022/09/02 08:00:31;;;;;;;0.97;0.60;;;19.10;99.90;;;;;;5096239;28;20450;-81
2022/09/02 08:02:58;;;;;;;0.70;0.60;;;19.00;99.90;;;;;;5096098;28;20460;-80
2022/09/02 08:05:25;;;;;;;0.70;0.70;;;19.20;99.90;;;;;;5096198;28;20444;-81
2022/09/02 08:07:52;;;;;;;0.53;0.53;;;19.30;99.90;;;;;;5096352;28;20553;-81
2022/09/02 08:10:20;;;;;;;1.27;0.53;;;19.40;99.90;;;;;;5095795;28;20915;-81
2022/09/02 08:12:47;;;;;;;0.70;0.70;;;19.40;99.90;;;;;;5095669;28;20489;-81
2022/09/02 08:15:15;;;;;;;2.50;1.37;;;19.50;99.90;;;;;;5095639;28;20966;-81
2022/09/02 08:17:43;;;;;;;0.83;0.70;;;19.60;99.90;;;;;;5095665;28;20447;-83
2022/09/02 08:20:11;;;;;;;1.17;0.70;;;19.70;99.90;;;;;;5095964;28;20892;-80
2022/09/02 08:22:38;;;;;;;2.73;0.63;;;19.70;99.90;;;;;;5095787;28;20918;-78
2022/09/02 08:25:06;;;;;;;0.40;0.40;;;19.70;99.90;;;;;;5095866;28;20493;-78
2022/09/02 08:27:33;;;;;;;1.03;0.80;;;19.70;99.90;;;;;;5095199;28;20496;-78
2022/09/02 08:30:00;;;;;;;1.17;1.17;;;19.80;99.90;;;;;;5095332;28;20451;-78
2022/09/02 08:32:31;;;;;;;0.70;0.70;;;19.90;99.90;;;;;;5095585;28;20497;-78
2022/09/02 08:35:01;;;;;;;0.70;0.70;;;20.00;99.90;;;;;;5095673;28;20556;-78
2022/09/02 08:37:28;;;;;;;1.00;0.90;;;20.20;99.90;;;;;;5095524;28;20936;-78
2022/09/02 08:39:54;;;;;;;2.30;0.90;;;20.30;99.90;;;;;;5095513;28;20444;-78
2022/09/02 08:42:23;;;;;;;1.00;0.90;;;20.30;99.90;;;;;;5095134;28;20475;-78
2022/09/02 08:44:54;;;;;;;1.40;1.30;;;20.40;99.90;;;;;;5095409;28;20800;-78
2022/09/02 08:47:28;;;;;;;0.70;0.70;;;20.50;99.90;;;;;;5095435;28;20436;-85
2022/09/02 08:49:59;;;;;;;0.50;0.50;;;20.50;99.90;;;;;;5095667;28;20431;-84
2022/09/02 08:52:33;;;;;;;0.60;0.60;;;20.50;99.90;;;;;;5095376;28;20471;-83
2022/09/02 08:55:01;;;;;;;1.07;0.80;;;20.60;99.90;;;;;;5095378;28;20439;-84
2022/09/02 08:57:29;;;;;;;0.60;0.60;;;20.50;99.90;;;;;;5095211;28;21016;-86
2022/09/02 09:00:00;;;;;;;0.60;0.60;;;20.60;99.90;;;;;;5095458;28;20539;-86
2022/09/02 09:02:34;;;;;;;0.60;0.60;;;20.70;99.90;;;;;;5095353;28;20506;-84
2022/09/02 09:05:23;;;;;;;0.60;0.60;;;20.90;99.90;;;;;;5095242;28;20444;-85
2022/09/02 09:08:03;;;;;;;0.67;0.67;;;21.10;99.90;;;;;;5094735;28;20834;-84
2022/09/02 09:10:37;;;;;;;3.53;0.83;;;21.40;99.90;;;;;;5095007;28;20431;-84
2022/09/02 09:13:29;;;;;;;1.20;1.10;;;21.60;99.90;;;;;;5094617;28;20462;-85
2022/09/02 09:16:02;;;;;;;0.60;0.60;;;21.80;99.90;;;;;;5094616;28;20450;-85
2022/09/02 09:18:36;;;;;;;0.63;0.63;;;21.80;99.90;;;;;;5094815;28;20432;-85
2022/09/02 09:21:05;;;;;;;0.70;0.70;;;21.80;99.90;;;;;;5094471;28;20930;-86
2022/09/02 09:23:34;;;;;;;0.77;0.77;;;22.00;99.90;;;;;;5094654;28;20470;-84
2022/09/02 09:26:07;;;;;;;0.77;0.60;;;22.50;99.90;;;;;;5094569;28;20495;-86
2022/09/02 09:28:39;;;;;;;0.80;0.80;;;22.90;99.90;;;;;;5094563;28;20478;-85
2022/09/02 09:31:09;;;;;;;0.57;0.57;;;22.80;99.90;;;;;;5094720;28;20793;-84
2022/09/02 09:33:36;;;;;;;1.10;0.70;;;22.40;99.90;;;;;;5094540;28;20463;-87
2022/09/02 09:36:04;;;;;;;1.03;0.70;;;22.20;99.90;;;;;;5094890;28;20444;-84
2022/09/02 09:38:33;;;;;;;0.83;0.70;;;22.00;99.90;;;;;;5094801;28;20486;-85
2022/09/02 09:41:13;;;;;;;1.00;0.63;;;21.80;99.90;;;;;;5094178;28;20455;-84
2022/09/02 09:43:40;;;;;;;0.93;0.73;;;21.80;99.90;;;;;;5094491;28;20847;-84
2022/09/02 09:46:24;;;;;;;4.50;0.80;;;22.00;99.90;;;;;;5094691;28;20447;-85
2022/09/02 09:48:51;;;;;;;0.60;0.60;;;22.10;99.90;;;;;;5094553;28;20504;-84
2022/09/02 09:51:19;;;;;;;0.70;0.70;;;21.90;99.90;;;;;;5094559;28;20870;-84
2022/09/02 09:53:46;;;;;;;0.73;0.73;;;21.80;99.90;;;;;;5094366;28;20911;-85
2022/09/02 09:56:33;;;;;;;2.30;0.80;;;21.80;99.90;;;;;;5094883;28;20444;-85
2022/09/02 09:59:00;;;;;;;0.60;0.60;;;21.70;99.90;;;;;;5094112;28;20427;-84
2022/09/02 10:01:30;;;;;;;0.80;0.80;;;21.70;99.90;;;;;;5094436;28;20471;-84
2022/09/02 10:04:02;;;;;;;0.60;0.60;;;21.80;99.90;;;;;;5095251;28;20465;-84
2022/09/02 10:06:42;;;;;;;0.80;0.80;;;22.00;99.90;;;;;;5094571;28;20431;-83
2022/09/02 10:09:33;;;;;;;0.50;0.50;;;22.00;99.90;;;;;;5093922;28;20463;-83
2022/09/02 10:12:03;;;;;;;0.60;0.60;;;22.00;99.90;;;;;;5093836;28;20470;-84
2022/09/02 10:14:34;;;;;;;0.80;0.60;;;22.20;99.90;;;;;;5093664;28;20504;-85
2022/09/02 10:17:15;;;;;;;0.70;0.53;;;22.20;99.90;;;;;;5093526;28;20915;-84
2022/09/02 10:19:50;;;;;;;0.77;0.60;;;22.20;99.90;;;;;;5093923;28;20776;-84
2022/09/02 10:22:39;;;;;;;0.50;0.50;;;22.30;99.90;;;;;;5093966;28;20470;-84
2022/09/02 10:25:19;;;;;;;0.50;0.50;;;22.30;99.90;;;;;;5063047;28;20443;-84
2022/09/02 10:27:55;;;;;;;0.70;0.70;;;22.50;99.90;;;;;;5094073;28;20431;-83
2022/09/02 10:30:23;;;;;;;0.57;0.57;;;22.40;98.80;;;;;;5094626;28;20424;-84
2022/09/02 10:33:15;;;;;;;0.60;0.60;;;22.40;98.80;;;;;;5093827;28;20466;-86
2022/09/02 10:35:45;;;;;;;0.40;0.40;;;22.50;98.60;;;;;;5094126;28;20424;-85
2022/09/02 10:38:29;;;;;;;0.40;0.40;;;22.50;98.10;;;;;;5094018;28;20428;-84
2022/09/02 10:41:01;;;;;;;0.70;0.60;;;22.50;98.10;;;;;;5093873;28;20436;-84
2022/09/02 10:43:47;;;;;;;0.67;0.67;;;22.50;97.20;;;;;;5093492;28;20464;-84
2022/09/02 10:46:19;;;;;;;0.70;0.50;;;22.70;98.10;;;;;;5093320;28;20915;-85
2022/09/02 10:48:56;;;;;;;0.60;0.60;;;22.80;97.40;;;;;;5093740;28;20470;-86
2022/09/02 10:51:38;;;;;;;0.80;0.60;;;23.10;96.20;;;;;;5093285;28;21004;-84
2022/09/02 10:54:20;;;;;;;0.90;0.60;;;23.10;96.50;;;;;;5093881;28;20432;-86
2022/09/02 10:56:54;;;;;;;0.60;0.60;;;23.30;95.40;;;;;;5093761;28;20429;-86
2022/09/02 10:59:24;;;;;;;1.00;0.70;;;23.40;95.00;;;;;;5093668;28;20424;-84
2022/09/02 11:01:56;;;;;;;0.50;0.50;;;23.30;93.70;;;;;;5093205;28;20974;-85
2022/09/02 11:04:32;;;;;;;0.60;0.60;;;23.30;93.90;;;;;;5093253;28;20471;-86
2022/09/02 11:07:02;;;;;;;1.70;0.80;;;23.40;94.80;;;;;;5093387;28;20430;-86
2022/09/02 11:09:35;;;;;;;0.80;0.80;;;23.30;93.70;;;;;;5093925;28;20846;-85
2022/09/02 11:12:08;;;;;;;0.70;0.67;;;23.20;92.90;;;;;;5095291;28;20475;-78
2022/09/02 11:14:40;;;;;;;0.70;0.57;;;23.00;93.50;;;;;;5093366;28;20530;-78
2022/09/02 11:17:14;;;;;;;0.60;0.60;;;23.00;93.90;;;;;;5092907;28;20899;-78
2022/09/02 11:19:46;;;;;;;0.97;0.60;;;23.00;93.40;;;;;;5093155;28;20449;-78
2022/09/02 11:22:22;;;;;;;0.60;0.60;;;23.00;93.70;;;;;;5093623;28;20467;-80
2022/09/02 11:24:55;;;;;;;0.60;0.60;;;23.00;92.40;;;;;;5093029;28;20458;-79
2022/09/02 11:27:32;;;;;;;0.93;0.70;;;22.90;93.40;;;;;;5093898;28;20478;-79
2022/09/02 11:30:02;;;;;;;4.77;0.73;;;22.80;92.50;;;;;;5097709;28;20512;-79
2022/09/02 11:32:36;;;;;;;1.13;0.70;;;22.80;92.50;;;;;;5096793;28;20459;-78
2022/09/02 11:35:08;;;;;;;0.70;0.70;;;22.70;92.40;;;;;;5096850;28;20848;-79
2022/09/02 11:37:41;;;;;;;0.77;0.60;;;22.70;92.80;;;;;;5096763;28;20841;-78
2022/09/02 11:40:13;;;;;;;0.60;0.60;;;22.80;92.70;;;;;;5096699;28;20523;-78
2022/09/02 11:43:01;;;;;;;0.70;0.70;;;22.90;92.10;;;;;;5096641;28;20467;-78
2022/09/02 11:45:58;;;;;;;0.60;0.60;;;22.90;92.50;;;;;;5096617;28;20440;-79
2022/09/02 11:49:02;;;;;;;0.70;0.70;;;22.90;92.20;;;;;;5096905;28;20451;-86
2022/09/02 11:51:51;;;;;;;0.87;0.70;;;23.00;91.60;;;;;;5093923;28;20465;-84
2022/09/02 11:54:21;;;;;;;0.70;0.70;;;22.90;91.50;;;;;;5097365;28;20794;-86
2022/09/02 11:56:58;;;;;;;0.60;0.60;;;22.90;92.20;;;;;;5096794;28;20973;-85
2022/09/02 12:00:03;;;;;;;0.57;0.57;;;22.80;91.70;;;;;;5096728;28;20431;-86
2022/09/02 12:02:37;;;;;;;1.70;0.60;;;22.70;91.60;;;;;;5096367;28;20977;-86
2022/09/02 12:05:41;;;;;;;0.60;0.60;;;22.60;91.50;;;;;;5096241;28;20440;-86
2022/09/02 12:08:11;;;;;;;3.43;0.83;;;22.60;91.80;;;;;;5096277;28;20428;-87
2022/09/02 12:10:59;;;;;;;0.60;0.60;;;22.50;91.90;;;;;;5096224;28;20520;-86
2022/09/02 12:13:36;;;;;;;1.07;1.07;;;22.50;92.20;;;;;;5096116;28;20495;-87
2022/09/02 12:16:53;;;;;;;0.60;0.50;;;22.50;91.80;;;;;;5096918;28;20504;-86
2022/09/02 12:19:28;;;;;;;0.90;0.60;;;22.40;91.10;;;;;;5033571;28;20573;-85
2022/09/02 12:22:26;;;;;;;0.67;0.67;;;22.30;91.50;;;;;;5033612;28;20890;-86
2022/09/02 12:24:53;;;;;;;0.50;0.50;;;22.10;92.00;;;;;;5073225;28;20496;-84
2022/09/02 12:27:29;;;;;;;0.70;0.70;;;22.10;92.70;;;;;;5095931;28;20482;-82
2022/09/02 12:29:59;;;;;;;0.60;0.60;;;22.00;92.40;;;;;;5095389;28;21012;-83
2022/09/02 12:32:59;;;;;;;0.47;0.47;;;22.00;92.80;;;;;;5095412;28;20463;-82
2022/09/02 12:35:53;;;;;;;0.80;0.50;;;22.00;92.20;;;;;;5095415;28;20439;-82
2022/09/02 12:38:43;;;;;;;0.60;0.57;;;21.90;92.70;;;;;;5095707;28;20431;-83
2022/09/02 12:41:33;;;;;;;0.70;0.70;;;21.80;93.40;;;;;;5080218;28;20463;-83
2022/09/02 12:44:26;;;;;;;0.70;0.70;;;21.80;94.00;;;;;;5095692;28;20428;-84
2022/09/02 12:47:05;;;;;;;0.50;0.50;;;21.90;94.20;;;;;;5095494;28;20427;-80
2022/09/02 12:49:47;;;;;;;0.50;0.50;;;21.70;93.80;;;;;;5095038;28;20835;-81
2022/09/02 12:52:45;;;;;;;0.90;0.80;;;21.70;94.20;;;;;;5095289;28;20473;-81
2022/09/02 12:55:23;;;;;;;0.60;0.60;;;21.60;94.30;;;;;;5095342;28;20443;-81
2022/09/02 12:57:52;;;;;;;0.73;0.70;;;21.60;94.10;;;;;;5095266;28;20802;-82
2022/09/02 13:00:31;;;;;;;0.53;0.53;;;21.60;94.20;;;;;;5095169;28;20435;-82
2022/09/02 13:03:09;;;;;;;0.80;0.80;;;21.50;94.30;;;;;;5095074;28;20859;-82
2022/09/02 13:05:49;;;;;;;4.20;1.13;;;21.60;94.40;;;;;;5095134;28;20439;-82
2022/09/02 13:08:59;;;;;;;0.70;0.70;;;21.60;94.00;;;;;;5095090;28;20432;-82
2022/09/02 13:11:48;;;;;;;0.60;0.60;;;21.60;93.70;;;;;;5094919;28;20419;-83